createdAt,value
2019-05-22T00:03:30.984Z,1.6
2019-05-22T00:08:38.391Z,1.6
2019-05-22T00:13:43.458Z,1.6
2019-05-22T00:18:48.524Z,1.5
2019-05-22T00:23:53.303Z,1.4
2019-05-22T00:28:58.129Z,1.4
2019-05-22T00:34:02.874Z,1.6
2019-05-22T00:39:07.817Z,1.4
2019-05-22T00:44:11.144Z,1.5
2019-05-22T00:49:15.889Z,1.6
2019-05-22T00:54:20.722Z,1.6
2019-05-22T00:59:26.218Z,1.5
2019-05-22T01:04:29.702Z,1.4
2019-05-22T01:09:34.672Z,1.5
2019-05-22T01:14:43.854Z,1.3
2019-05-22T01:19:49.049Z,1.4
2019-05-22T01:24:53.861Z,1.4
2019-05-22T01:29:58.968Z,1.5
2019-05-22T01:35:03.880Z,1.6
2019-05-22T01:40:09.084Z,1.4
2019-05-22T01:45:12.587Z,1.6
2019-05-22T01:50:17.687Z,1.5
2019-05-22T01:55:21.284Z,1.5
2019-05-22T02:00:26.397Z,1.5
2019-05-22T02:05:31.592Z,1.6
2019-05-22T02:10:36.827Z,1.6
2019-05-22T02:15:41.554Z,1.6
2019-05-22T02:20:46.752Z,1.7
2019-05-22T02:25:51.805Z,1.7
2019-05-22T02:30:57.156Z,2.1
2019-05-22T02:36:01.908Z,2.4
2019-05-22T02:41:06.796Z,2.3
2019-05-22T02:46:11.721Z,2.4
2019-05-22T02:51:19.122Z,2.2
2019-05-22T02:56:23.904Z,2.1
2019-05-22T03:01:29.333Z,2
2019-05-22T03:06:34.289Z,2
2019-05-22T03:11:39.190Z,2
2019-05-22T03:16:44.174Z,2
2019-05-22T03:21:49.253Z,1.9
2019-05-22T03:26:54.019Z,2.1
2019-05-22T03:31:58.977Z,2
2019-05-22T03:37:04.010Z,2.1
2019-05-22T03:42:08.956Z,2
2019-05-22T03:47:14.104Z,2.2
2019-05-22T03:52:21.727Z,2.1
2019-05-22T03:57:26.693Z,2.3
2019-05-22T04:02:31.768Z,2.1
2019-05-22T04:07:36.540Z,2.1
2019-05-22T04:12:41.556Z,1.9
2019-05-22T04:17:46.388Z,2.2
2019-05-22T04:22:51.509Z,2.9
2019-05-22T04:27:56.528Z,2.4
2019-05-22T04:33:01.716Z,2.2
2019-05-22T04:38:06.522Z,2.2
2019-05-22T04:43:11.651Z,2.4
2019-05-22T04:48:16.508Z,2.6
2019-05-22T04:53:21.390Z,2.4
2019-05-22T04:58:26.822Z,2.3
2019-05-22T05:03:32.621Z,2.3
2019-05-22T05:08:38.156Z,2.2
2019-05-22T05:13:43.509Z,2.2
2019-05-22T05:18:48.851Z,2.3
2019-05-22T05:23:53.709Z,2.1
2019-05-22T05:28:58.738Z,2.1
2019-05-22T05:34:03.745Z,2
2019-05-22T05:39:08.901Z,1.9
2019-05-22T05:44:14.586Z,1.8
2019-05-22T05:49:19.418Z,1.9
2019-05-22T05:54:24.820Z,1.8
2019-05-22T05:59:30.222Z,2.2
2019-05-22T06:04:36.536Z,1.7
2019-05-22T06:09:40.601Z,1.9
2019-05-22T06:14:46.637Z,2
2019-05-22T06:19:52.012Z,1.8
2019-05-22T06:24:55.681Z,2.4
2019-05-22T06:29:59.571Z,2
2019-05-22T06:35:04.400Z,2.2
2019-05-22T06:40:08.046Z,1.9
2019-05-22T06:45:12.983Z,1.7
2019-05-22T06:50:17.840Z,1.8
2019-05-22T06:55:23.176Z,1.6
2019-05-22T07:00:27.990Z,1.5
2019-05-22T07:05:33.497Z,1.5
2019-05-22T07:10:38.874Z,1.5
2019-05-22T07:15:44.306Z,1.6
2019-05-22T07:20:49.807Z,1.5
2019-05-22T07:25:55.254Z,1.5
2019-05-22T07:31:00.428Z,1.4
2019-05-22T07:36:16.330Z,1.4
2019-05-22T07:41:11.948Z,1.5
2019-05-22T07:46:15.616Z,1.4
2019-05-22T07:51:20.436Z,1.4
2019-05-22T07:56:24.034Z,1.6
2019-05-22T08:01:27.854Z,1.8
2019-05-22T08:06:33.220Z,1.7
2019-05-22T08:11:36.884Z,1.8
2019-05-22T08:16:41.657Z,2.1
2019-05-22T08:21:45.088Z,2.4
2019-05-22T08:26:55.702Z,2.4
2019-05-22T08:31:50.770Z,2.6
2019-05-22T08:36:55.778Z,3.3
2019-05-22T08:41:59.277Z,3.5
2019-05-22T08:47:04.348Z,4.5
2019-05-22T08:52:24.277Z,4.6
2019-05-22T08:57:09.711Z,2
2019-05-22T09:02:15.009Z,2.1
2019-05-22T09:07:20.377Z,2
2019-05-22T09:12:25.208Z,2.3
2019-05-22T09:17:30.225Z,1.7
2019-05-22T09:22:42.034Z,2
2019-05-22T09:27:37.244Z,1.6
2019-05-22T09:32:42.045Z,1.8
2019-05-22T09:37:47.317Z,1.7
2019-05-22T09:42:50.983Z,1.4
2019-05-22T09:47:55.951Z,1.7
2019-05-22T09:52:59.307Z,1.5
2019-05-22T09:58:04.472Z,1.4
2019-05-22T10:03:09.357Z,1.6
2019-05-22T10:08:14.884Z,1.7
2019-05-22T10:13:19.899Z,2.2
2019-05-22T10:18:25.008Z,2.5
2019-05-22T10:23:29.911Z,3.2
2019-05-22T10:28:34.723Z,2.4
2019-05-22T10:33:39.555Z,2.7
2019-05-22T10:38:44.464Z,2.2
2019-05-22T10:43:49.480Z,2.4
2019-05-22T10:48:54.290Z,2.2
2019-05-22T10:53:59.215Z,2.8
2019-05-22T10:59:04.074Z,2.8
2019-05-22T11:04:09.138Z,2.2
2019-05-22T11:09:14.127Z,2.1
2019-05-22T11:14:19.050Z,1.8
2019-05-22T11:19:24.301Z,1.8
2019-05-22T11:24:29.217Z,1.7
2019-05-22T11:29:34.516Z,1.9
2019-05-22T11:34:39.586Z,2.2
2019-05-22T11:39:45.956Z,2.2
2019-05-22T11:44:52.759Z,2.2
2019-05-22T11:49:57.790Z,2.4
2019-05-22T11:55:02.558Z,2.2
2019-05-22T12:00:10.189Z,2.1
2019-05-22T12:05:15.273Z,1.9
2019-05-22T12:10:20.353Z,2.2
2019-05-22T12:15:25.431Z,1.6
2019-05-22T12:20:30.378Z,1.7
2019-05-22T12:25:35.142Z,1.8
2019-05-22T12:30:40.339Z,1.7
2019-05-22T12:35:45.329Z,1.6
2019-05-22T12:40:51.280Z,1.5
2019-05-22T12:45:56.193Z,1.5
2019-05-22T12:51:01.822Z,1.7
2019-05-22T12:56:06.874Z,1.8
2019-05-22T13:01:12.265Z,1.6
2019-05-22T13:06:15.893Z,1.8
2019-05-22T13:11:22.574Z,1.8
2019-05-22T13:16:27.592Z,1.7
2019-05-22T13:21:31.358Z,1.9
2019-05-22T13:26:37.171Z,2.1
2019-05-22T13:31:42.248Z,2.5
2019-05-22T13:36:47.182Z,2.3
2019-05-22T13:41:52.008Z,2.9
2019-05-22T13:46:56.935Z,2.3
2019-05-22T13:52:01.882Z,2.3
2019-05-22T13:57:06.829Z,2.4
2019-05-22T14:02:11.811Z,2.9
2019-05-22T14:07:15.392Z,2.2
2019-05-22T14:12:20.725Z,1.9
2019-05-22T14:17:25.833Z,1.9
2019-05-22T14:22:31.003Z,1.6
2019-05-22T14:27:42.651Z,1.6
2019-05-22T14:32:48.456Z,1.4
2019-05-22T14:37:53.648Z,1.5
2019-05-22T14:42:58.889Z,1.6
2019-05-22T14:48:06.733Z,1.6
2019-05-22T14:53:11.635Z,1.7
2019-05-22T14:58:16.510Z,1.8
2019-05-22T15:03:23.514Z,1.5
2019-05-22T15:08:28.700Z,1.5
2019-05-22T15:13:34.122Z,1.7
2019-05-22T15:18:39.231Z,1.6
2019-05-22T15:23:44.707Z,1.4
2019-05-22T15:28:49.471Z,1.4
2019-05-22T15:33:54.412Z,1.7
2019-05-22T15:38:59.254Z,1.5
2019-05-22T15:44:04.135Z,1.5
2019-05-22T15:49:08.920Z,1.5
2019-05-22T15:54:13.992Z,1.6
2019-05-22T15:59:18.828Z,1.5
2019-05-22T16:04:23.774Z,1.6
2019-05-22T16:09:28.665Z,1.5
2019-05-22T16:14:34.372Z,1.6
2019-05-22T16:19:39.601Z,1.8
2019-05-22T16:24:44.653Z,1.7
2019-05-22T16:29:49.988Z,1.6
2019-05-22T16:34:55.368Z,1.5
2019-05-22T16:40:00.134Z,1.6
2019-05-22T16:45:06.527Z,1.9
2019-05-22T16:50:11.398Z,1.8
2019-05-22T16:55:16.708Z,1.8
2019-05-22T17:00:21.808Z,1.9
2019-05-22T17:05:26.750Z,1.9
2019-05-22T17:10:31.968Z,2.2
2019-05-22T17:15:38.660Z,1.8
2019-05-22T17:20:43.845Z,1.9
2019-05-22T17:25:51.867Z,1.8
2019-05-22T17:30:56.971Z,2
2019-05-22T17:36:06.127Z,2.3
2019-05-22T17:41:11.180Z,2.3
2019-05-22T17:46:16.289Z,2
2019-05-22T17:51:21.059Z,1.9
2019-05-22T17:56:25.936Z,2.1
2019-05-22T18:01:31.050Z,2.1
2019-05-22T18:06:40.031Z,2.4
2019-05-22T18:11:44.838Z,2.3
2019-05-22T18:16:49.968Z,2.5
2019-05-22T18:21:55.400Z,2.3
2019-05-22T18:27:00.861Z,2.6
2019-05-22T18:32:06.032Z,2.3
2019-05-22T18:37:11.159Z,2.4
2019-05-22T18:42:15.979Z,2.5
2019-05-22T18:47:20.894Z,2.5
2019-05-22T18:52:41.713Z,2.8
2019-05-22T18:57:28.587Z,2.6
2019-05-22T19:02:33.614Z,2.6
2019-05-22T19:07:41.188Z,2.8
2019-05-22T19:12:45.999Z,2.6
2019-05-22T19:17:51.235Z,2.5
2019-05-22T19:23:02.374Z,2.6
2019-05-22T19:28:00.318Z,2.7
2019-05-22T19:33:05.730Z,2.6
2019-05-22T19:38:13.546Z,2.7
2019-05-22T19:43:17.205Z,2.6
2019-05-22T19:48:22.135Z,2.8
2019-05-22T19:53:27.178Z,2.8
2019-05-22T19:58:32.153Z,3
2019-05-22T20:03:37.062Z,3.2
2019-05-22T20:08:42.274Z,3.2
2019-05-22T20:13:47.429Z,3.2
2019-05-22T20:18:52.534Z,3.7
2019-05-22T20:23:57.361Z,4.1
2019-05-22T20:29:02.878Z,4.4
2019-05-22T20:34:06.532Z,4.9
2019-05-22T20:39:11.379Z,4.9
2019-05-22T20:44:16.224Z,5
2019-05-22T20:49:21.141Z,5.1
2019-05-22T20:54:28.621Z,4.9
2019-05-22T20:59:34.008Z,5.6
2019-05-22T21:04:38.825Z,5.1
2019-05-22T21:09:43.921Z,5.3
2019-05-22T21:14:49.004Z,5.5
2019-05-22T21:19:54.218Z,5.6
2019-05-22T21:24:58.988Z,5.2
2019-05-22T21:30:09.948Z,5.7
2019-05-22T21:35:13.626Z,6.1
2019-05-22T21:40:18.572Z,6
2019-05-22T21:45:23.579Z,6
2019-05-22T21:50:28.654Z,6.4
2019-05-22T21:55:33.756Z,6.3
2019-05-22T22:00:39.204Z,6.3
2019-05-22T22:05:44.182Z,5.8
2019-05-22T22:10:49.112Z,5.8
2019-05-22T22:15:54.125Z,5.5
2019-05-22T22:20:58.254Z,5.7
2019-05-22T22:26:03.578Z,5.9
2019-05-22T22:31:10.261Z,5.7
2019-05-22T22:36:15.367Z,5.3
2019-05-22T22:41:20.432Z,5.9
2019-05-22T22:46:25.302Z,5.5
2019-05-22T22:51:30.442Z,5.6
2019-05-22T22:56:35.685Z,5.1
2019-05-22T23:01:40.816Z,4.9
2019-05-22T23:06:45.691Z,4.7
2019-05-22T23:11:50.604Z,4.6
2019-05-22T23:16:55.541Z,4.3
2019-05-22T23:21:59.488Z,4.6
2019-05-22T23:27:04.496Z,4.9
2019-05-22T23:32:09.465Z,4.8
2019-05-22T23:37:14.330Z,4.6
2019-05-22T23:42:19.459Z,4.6
2019-05-22T23:47:24.481Z,4.2
2019-05-22T23:52:29.966Z,4.4
2019-05-22T23:57:35.026Z,4.2
